sensor_id;sensor_type;location;lat;lon;timestamp;temperature;humidity
69715;HTU21D;56981;53.532;49.398;2022-11-20T00:01:15;0.30;89.00
69715;HTU21D;56981;53.532;49.398;2022-11-20T00:03:42;0.29;88.99
69715;HTU21D;56981;53.532;49.398;2022-11-20T00:06:10;0.28;89.66
69715;HTU21D;56981;53.532;49.398;2022-11-20T00:08:37;0.29;89.62
69715;HTU21D;56981;53.532;49.398;2022-11-20T00:11:08;0.29;89.04
69715;HTU21D;56981;53.532;49.398;2022-11-20T00:13:35;0.24;89.34
69715;HTU21D;56981;53.532;49.398;2022-11-20T00:16:05;0.23;89.20
69715;HTU21D;56981;53.532;49.398;2022-11-20T00:18:36;0.23;89.57
69715;HTU21D;56981;53.532;49.398;2022-11-20T00:21:09;0.27;89.65
69715;HTU21D;56981;53.532;49.398;2022-11-20T00:23:36;0.27;89.74
69715;HTU21D;56981;53.532;49.398;2022-11-20T00:26:06;0.29;89.66
69715;HTU21D;56981;53.532;49.398;2022-11-20T00:28:33;0.33;89.60
69715;HTU21D;56981;53.532;49.398;2022-11-20T00:31:07;0.33;89.28
69715;HTU21D;56981;53.532;49.398;2022-11-20T00:33:34;0.38;89.31
69715;HTU21D;56981;53.532;49.398;2022-11-20T00:36:02;0.44;89.21
69715;HTU21D;56981;53.532;49.398;2022-11-20T00:38:30;0.46;88.73
69715;HTU21D;56981;53.532;49.398;2022-11-20T00:41:00;0.43;88.67
69715;HTU21D;56981;53.532;49.398;2022-11-20T00:43:27;0.39;88.15
69715;HTU21D;56981;53.532;49.398;2022-11-20T00:46:04;0.42;88.61
69715;HTU21D;56981;53.532;49.398;2022-11-20T00:48:31;0.37;88.30
69715;HTU21D;56981;53.532;49.398;2022-11-20T00:50:57;0.35;88.11
69715;HTU21D;56981;53.532;49.398;2022-11-20T00:53:23;0.33;87.94
69715;HTU21D;56981;53.532;49.398;2022-11-20T00:56:01;0.30;88.18
69715;HTU21D;56981;53.532;49.398;2022-11-20T00:58:35;0.30;88.54
69715;HTU21D;56981;53.532;49.398;2022-11-20T01:03:37;0.28;88.01
69715;HTU21D;56981;53.532;49.398;2022-11-20T01:06:09;0.23;88.18
69715;HTU21D;56981;53.532;49.398;2022-11-20T01:08:36;0.25;87.87
69715;HTU21D;56981;53.532;49.398;2022-11-20T01:11:06;0.23;87.74
69715;HTU21D;56981;53.532;49.398;2022-11-20T01:13:33;0.20;87.36
69715;HTU21D;56981;53.532;49.398;2022-11-20T01:16:24;0.20;87.91
69715;HTU21D;56981;53.532;49.398;2022-11-20T01:18:54;0.19;88.15
69715;HTU21D;56981;53.532;49.398;2022-11-20T01:21:31;0.20;88.41
69715;HTU21D;56981;53.532;49.398;2022-11-20T01:23:58;0.22;88.27
69715;HTU21D;56981;53.532;49.398;2022-11-20T01:26:28;0.25;88.25
69715;HTU21D;56981;53.532;49.398;2022-11-20T01:28:55;0.24;88.04
69715;HTU21D;56981;53.532;49.398;2022-11-20T01:31:31;0.27;88.32
69715;HTU21D;56981;53.532;49.398;2022-11-20T01:34:00;0.25;88.96
69715;HTU21D;56981;53.532;49.398;2022-11-20T01:36:28;0.27;88.78
69715;HTU21D;56981;53.532;49.398;2022-11-20T01:39:00;0.24;88.58
69715;HTU21D;56981;53.532;49.398;2022-11-20T01:41:28;0.27;88.63
69715;HTU21D;56981;53.532;49.398;2022-11-20T01:44:15;0.22;89.26
69715;HTU21D;56981;53.532;49.398;2022-11-20T01:47:05;0.20;89.31
69715;HTU21D;56981;53.532;49.398;2022-11-20T01:49:46;0.19;88.79
69715;HTU21D;56981;53.532;49.398;2022-11-20T01:52:35;0.17;88.78
69715;HTU21D;56981;53.532;49.398;2022-11-20T01:55:36;0.18;89.04
69715;HTU21D;56981;53.532;49.398;2022-11-20T01:58:04;0.14;89.06
69715;HTU21D;56981;53.532;49.398;2022-11-20T02:00:30;0.15;89.50
69715;HTU21D;56981;53.532;49.398;2022-11-20T02:03:09;0.20;89.39
69715;HTU21D;56981;53.532;49.398;2022-11-20T02:05:53;0.24;89.16
69715;HTU21D;56981;53.532;49.398;2022-11-20T02:08:22;0.27;88.84
69715;HTU21D;56981;53.532;49.398;2022-11-20T02:10:49;0.24;89.18
69715;HTU21D;56981;53.532;49.398;2022-11-20T02:13:15;0.31;89.04
69715;HTU21D;56981;53.532;49.398;2022-11-20T02:16:01;0.38;88.76
69715;HTU21D;56981;53.532;49.398;2022-11-20T02:18:28;0.43;88.46
69715;HTU21D;56981;53.532;49.398;2022-11-20T02:21:13;0.50;88.41
69715;HTU21D;56981;53.532;49.398;2022-11-20T02:26:36;0.59;88.50
69715;HTU21D;56981;53.532;49.398;2022-11-20T02:29:03;0.60;87.93
69715;HTU21D;56981;53.532;49.398;2022-11-20T02:31:42;0.54;88.36
69715;HTU21D;56981;53.532;49.398;2022-11-20T02:34:09;0.52;88.25
69715;HTU21D;56981;53.532;49.398;2022-11-20T02:36:36;0.52;88.28
69715;HTU21D;56981;53.532;49.398;2022-11-20T02:39:05;0.55;88.28
69715;HTU21D;56981;53.532;49.398;2022-11-20T02:41:36;0.52;88.06
69715;HTU21D;56981;53.532;49.398;2022-11-20T02:44:03;0.51;88.15
69715;HTU21D;56981;53.532;49.398;2022-11-20T02:46:30;0.51;88.31
69715;HTU21D;56981;53.532;49.398;2022-11-20T02:48:56;0.53;88.64
69715;HTU21D;56981;53.532;49.398;2022-11-20T02:51:23;0.55;88.66
69715;HTU21D;56981;53.532;49.398;2022-11-20T02:53:49;0.59;88.25
69715;HTU21D;56981;53.532;49.398;2022-11-20T02:56:16;0.61;87.91
69715;HTU21D;56981;53.532;49.398;2022-11-20T02:58:42;0.67;88.04
69715;HTU21D;56981;53.532;49.398;2022-11-20T03:01:08;0.69;88.25
69715;HTU21D;56981;53.532;49.398;2022-11-20T03:03:34;0.65;88.31
69715;HTU21D;56981;53.532;49.398;2022-11-20T03:06:00;0.67;88.22
69715;HTU21D;56981;53.532;49.398;2022-11-20T03:08:26;0.69;88.19
69715;HTU21D;56981;53.532;49.398;2022-11-20T03:10:52;0.67;88.33
69715;HTU21D;56981;53.532;49.398;2022-11-20T03:13:18;0.73;88.20
69715;HTU21D;56981;53.532;49.398;2022-11-20T03:15:44;0.73;88.20
69715;HTU21D;56981;53.532;49.398;2022-11-20T03:18:10;0.79;87.78
69715;HTU21D;56981;53.532;49.398;2022-11-20T03:20:37;0.78;87.89
69715;HTU21D;56981;53.532;49.398;2022-11-20T03:23:03;0.81;88.10
69715;HTU21D;56981;53.532;49.398;2022-11-20T03:25:29;0.81;88.47
69715;HTU21D;56981;53.532;49.398;2022-11-20T03:27:55;0.83;88.32
69715;HTU21D;56981;53.532;49.398;2022-11-20T03:30:21;0.87;87.98
69715;HTU21D;56981;53.532;49.398;2022-11-20T03:32:47;0.89;87.77
69715;HTU21D;56981;53.532;49.398;2022-11-20T03:35:13;0.89;87.73
69715;HTU21D;56981;53.532;49.398;2022-11-20T03:37:40;0.86;88.09
69715;HTU21D;56981;53.532;49.398;2022-11-20T03:40:06;0.82;88.09
69715;HTU21D;56981;53.532;49.398;2022-11-20T03:42:33;0.83;88.54
69715;HTU21D;56981;53.532;49.398;2022-11-20T03:45:16;0.76;88.22
69715;HTU21D;56981;53.532;49.398;2022-11-20T03:47:42;0.81;88.40
69715;HTU21D;56981;53.532;49.398;2022-11-20T03:50:10;0.72;88.10
69715;HTU21D;56981;53.532;49.398;2022-11-20T03:52:37;0.68;88.56
69715;HTU21D;56981;53.532;49.398;2022-11-20T03:55:05;0.69;88.68
69715;HTU21D;56981;53.532;49.398;2022-11-20T03:57:31;0.69;88.55
69715;HTU21D;56981;53.532;49.398;2022-11-20T03:59:57;0.72;88.56
69715;HTU21D;56981;53.532;49.398;2022-11-20T04:02:23;0.65;88.60
69715;HTU21D;56981;53.532;49.398;2022-11-20T04:04:49;0.63;88.75
69715;HTU21D;56981;53.532;49.398;2022-11-20T04:07:15;0.63;88.89
69715;HTU21D;56981;53.532;49.398;2022-11-20T04:09:41;0.63;88.99
69715;HTU21D;56981;53.532;49.398;2022-11-20T04:12:07;0.63;89.02
69715;HTU21D;56981;53.532;49.398;2022-11-20T04:14:33;0.65;88.86
69715;HTU21D;56981;53.532;49.398;2022-11-20T04:16:59;0.65;89.31
69715;HTU21D;56981;53.532;49.398;2022-11-20T04:19:25;0.66;89.02
69715;HTU21D;56981;53.532;49.398;2022-11-20T04:21:51;0.63;89.15
69715;HTU21D;56981;53.532;49.398;2022-11-20T04:24:17;0.64;89.13
69715;HTU21D;56981;53.532;49.398;2022-11-20T04:26:43;0.67;89.23
69715;HTU21D;56981;53.532;49.398;2022-11-20T04:29:11;0.69;89.10
69715;HTU21D;56981;53.532;49.398;2022-11-20T04:31:37;0.65;88.86
69715;HTU21D;56981;53.532;49.398;2022-11-20T04:34:05;0.69;89.05
69715;HTU21D;56981;53.532;49.398;2022-11-20T04:36:32;0.67;88.90
69715;HTU21D;56981;53.532;49.398;2022-11-20T04:39:02;0.68;88.82
69715;HTU21D;56981;53.532;49.398;2022-11-20T04:41:31;0.69;88.80
69715;HTU21D;56981;53.532;49.398;2022-11-20T04:44:00;0.73;88.77
69715;HTU21D;56981;53.532;49.398;2022-11-20T04:46:31;0.72;88.48
69715;HTU21D;56981;53.532;49.398;2022-11-20T04:49:00;0.71;88.80
69715;HTU21D;56981;53.532;49.398;2022-11-20T04:51:27;0.67;88.64
69715;HTU21D;56981;53.532;49.398;2022-11-20T04:53:56;0.68;88.85
69715;HTU21D;56981;53.532;49.398;2022-11-20T04:56:22;0.67;88.78
69715;HTU21D;56981;53.532;49.398;2022-11-20T04:58:48;0.67;88.60
69715;HTU21D;56981;53.532;49.398;2022-11-20T05:01:23;0.67;88.94
69715;HTU21D;56981;53.532;49.398;2022-11-20T05:03:50;0.71;88.54
69715;HTU21D;56981;53.532;49.398;2022-11-20T05:06:17;0.73;88.64
69715;HTU21D;56981;53.532;49.398;2022-11-20T05:08:44;0.71;88.57
69715;HTU21D;56981;53.532;49.398;2022-11-20T05:11:15;0.69;88.48
69715;HTU21D;56981;53.532;49.398;2022-11-20T05:13:42;0.72;88.58
69715;HTU21D;56981;53.532;49.398;2022-11-20T05:16:18;0.75;88.63
69715;HTU21D;56981;53.532;49.398;2022-11-20T05:18:45;0.80;88.72
69715;HTU21D;56981;53.532;49.398;2022-11-20T05:21:12;0.81;87.97
69715;HTU21D;56981;53.532;49.398;2022-11-20T05:23:42;0.84;88.10
69715;HTU21D;56981;53.532;49.398;2022-11-20T05:26:15;0.82;87.86
69715;HTU21D;56981;53.532;49.398;2022-11-20T05:28:42;0.79;88.07
69715;HTU21D;56981;53.532;49.398;2022-11-20T05:31:11;0.79;88.25
69715;HTU21D;56981;53.532;49.398;2022-11-20T05:33:40;0.81;88.18
69715;HTU21D;56981;53.532;49.398;2022-11-20T05:36:06;0.86;88.08
69715;HTU21D;56981;53.532;49.398;2022-11-20T05:38:33;0.83;88.08
69715;HTU21D;56981;53.532;49.398;2022-11-20T05:41:09;0.87;88.48
69715;HTU21D;56981;53.532;49.398;2022-11-20T05:43:37;0.88;87.98
69715;HTU21D;56981;53.532;49.398;2022-11-20T05:46:05;0.93;87.99
69715;HTU21D;56981;53.532;49.398;2022-11-20T05:48:34;0.95;87.96
69715;HTU21D;56981;53.532;49.398;2022-11-20T05:51:02;0.94;87.99
69715;HTU21D;56981;53.532;49.398;2022-11-20T05:53:28;1.01;87.82
69715;HTU21D;56981;53.532;49.398;2022-11-20T05:56:09;1.05;87.96
69715;HTU21D;56981;53.532;49.398;2022-11-20T05:58:36;1.11;87.44
69715;HTU21D;56981;53.532;49.398;2022-11-20T06:01:13;1.24;87.25
69715;HTU21D;56981;53.532;49.398;2022-11-20T06:03:40;1.31;86.83
69715;HTU21D;56981;53.532;49.398;2022-11-20T06:06:08;1.35;86.67
69715;HTU21D;56981;53.532;49.398;2022-11-20T06:08:34;1.35;86.61
69715;HTU21D;56981;53.532;49.398;2022-11-20T06:11:08;1.45;86.43
69715;HTU21D;56981;53.532;49.398;2022-11-20T06:13:35;1.46;86.62
69715;HTU21D;56981;53.532;49.398;2022-11-20T06:16:01;1.47;86.45
69715;HTU21D;56981;53.532;49.398;2022-11-20T06:18:28;1.48;86.28
69715;HTU21D;56981;53.532;49.398;2022-11-20T06:21:03;1.52;86.07
69715;HTU21D;56981;53.532;49.398;2022-11-20T06:23:31;1.56;86.19
69715;HTU21D;56981;53.532;49.398;2022-11-20T06:26:01;1.60;86.13
69715;HTU21D;56981;53.532;49.398;2022-11-20T06:28:28;1.65;85.93
69715;HTU21D;56981;53.532;49.398;2022-11-20T06:30:54;1.69;86.08
69715;HTU21D;56981;53.532;49.398;2022-11-20T06:33:20;1.70;85.93
69715;HTU21D;56981;53.532;49.398;2022-11-20T06:35:46;1.71;86.26
69715;HTU21D;56981;53.532;49.398;2022-11-20T06:38:15;1.71;86.25
69715;HTU21D;56981;53.532;49.398;2022-11-20T06:40:42;1.80;86.49
69715;HTU21D;56981;53.532;49.398;2022-11-20T06:43:11;1.82;85.87
69715;HTU21D;56981;53.532;49.398;2022-11-20T06:45:37;1.79;86.04
69715;HTU21D;56981;53.532;49.398;2022-11-20T06:48:03;1.87;86.16
69715;HTU21D;56981;53.532;49.398;2022-11-20T06:50:29;1.95;85.43
69715;HTU21D;56981;53.532;49.398;2022-11-20T06:52:56;1.96;85.60
69715;HTU21D;56981;53.532;49.398;2022-11-20T06:55:22;2.02;85.48
69715;HTU21D;56981;53.532;49.398;2022-11-20T06:57:50;2.10;85.33
69715;HTU21D;56981;53.532;49.398;2022-11-20T07:00:16;2.09;85.38
69715;HTU21D;56981;53.532;49.398;2022-11-20T07:02:43;2.12;85.25
69715;HTU21D;56981;53.532;49.398;2022-11-20T07:05:09;2.19;84.99
69715;HTU21D;56981;53.532;49.398;2022-11-20T07:07:35;2.20;85.03
69715;HTU21D;56981;53.532;49.398;2022-11-20T07:10:01;2.12;84.68
69715;HTU21D;56981;53.532;49.398;2022-11-20T07:12:27;2.17;84.64
69715;HTU21D;56981;53.532;49.398;2022-11-20T07:14:53;2.11;85.06
69715;HTU21D;56981;53.532;49.398;2022-11-20T07:17:19;2.17;85.00
69715;HTU21D;56981;53.532;49.398;2022-11-20T07:19:45;2.20;84.73
69715;HTU21D;56981;53.532;49.398;2022-11-20T07:22:11;2.13;85.25
69715;HTU21D;56981;53.532;49.398;2022-11-20T07:24:38;2.16;85.23
69715;HTU21D;56981;53.532;49.398;2022-11-20T07:27:07;2.10;85.05
69715;HTU21D;56981;53.532;49.398;2022-11-20T07:29:33;2.08;85.43
69715;HTU21D;56981;53.532;49.398;2022-11-20T07:31:59;2.15;85.38
69715;HTU21D;56981;53.532;49.398;2022-11-20T07:34:28;2.17;85.35
69715;HTU21D;56981;53.532;49.398;2022-11-20T07:36:54;2.13;84.90
69715;HTU21D;56981;53.532;49.398;2022-11-20T07:39:21;2.08;85.34
69715;HTU21D;56981;53.532;49.398;2022-11-20T07:41:49;2.05;85.58
69715;HTU21D;56981;53.532;49.398;2022-11-20T07:44:15;2.00;85.80
69715;HTU21D;56981;53.532;49.398;2022-11-20T07:46:41;2.05;86.06
69715;HTU21D;56981;53.532;49.398;2022-11-20T07:49:07;2.03;86.28
69715;HTU21D;56981;53.532;49.398;2022-11-20T07:51:33;2.06;86.07
69715;HTU21D;56981;53.532;49.398;2022-11-20T07:54:02;2.19;86.30
69715;HTU21D;56981;53.532;49.398;2022-11-20T07:56:29;2.25;85.61
69715;HTU21D;56981;53.532;49.398;2022-11-20T07:58:55;2.26;85.51
69715;HTU21D;56981;53.532;49.398;2022-11-20T08:01:23;2.38;85.37
69715;HTU21D;56981;53.532;49.398;2022-11-20T08:03:49;2.39;85.57
69715;HTU21D;56981;53.532;49.398;2022-11-20T08:06:15;2.32;84.71
69715;HTU21D;56981;53.532;49.398;2022-11-20T08:08:53;2.36;84.91
69715;HTU21D;56981;53.532;49.398;2022-11-20T08:11:30;2.47;84.51
69715;HTU21D;56981;53.532;49.398;2022-11-20T08:14:15;2.60;83.38
69715;HTU21D;56981;53.532;49.398;2022-11-20T08:16:46;2.59;83.27
69715;HTU21D;56981;53.532;49.398;2022-11-20T08:19:14;2.62;83.78
69715;HTU21D;56981;53.532;49.398;2022-11-20T08:21:44;2.64;83.67
69715;HTU21D;56981;53.532;49.398;2022-11-20T08:24:11;2.69;83.55
69715;HTU21D;56981;53.532;49.398;2022-11-20T08:26:38;2.71;83.00
69715;HTU21D;56981;53.532;49.398;2022-11-20T08:29:05;2.75;83.70
69715;HTU21D;56981;53.532;49.398;2022-11-20T08:31:31;2.80;83.89
69715;HTU21D;56981;53.532;49.398;2022-11-20T08:33:58;2.82;83.32
69715;HTU21D;56981;53.532;49.398;2022-11-20T08:36:24;2.90;82.76
69715;HTU21D;56981;53.532;49.398;2022-11-20T08:38:54;2.85;82.55
69715;HTU21D;56981;53.532;49.398;2022-11-20T08:41:21;2.83;82.75
69715;HTU21D;56981;53.532;49.398;2022-11-20T08:44:00;2.84;83.26
69715;HTU21D;56981;53.532;49.398;2022-11-20T08:46:37;2.88;82.91
69715;HTU21D;56981;53.532;49.398;2022-11-20T08:49:05;2.89;83.54
69715;HTU21D;56981;53.532;49.398;2022-11-20T08:51:31;2.84;83.81
69715;HTU21D;56981;53.532;49.398;2022-11-20T08:53:57;2.86;83.82
69715;HTU21D;56981;53.532;49.398;2022-11-20T08:56:23;2.83;83.93
69715;HTU21D;56981;53.532;49.398;2022-11-20T08:58:50;2.89;83.98
69715;HTU21D;56981;53.532;49.398;2022-11-20T09:01:21;2.89;83.78
69715;HTU21D;56981;53.532;49.398;2022-11-20T09:03:47;2.90;83.97
69715;HTU21D;56981;53.532;49.398;2022-11-20T09:06:13;2.96;83.69
69715;HTU21D;56981;53.532;49.398;2022-11-20T09:08:40;2.93;83.80
69715;HTU21D;56981;53.532;49.398;2022-11-20T09:11:06;3.01;83.80
69715;HTU21D;56981;53.532;49.398;2022-11-20T09:13:33;2.98;83.61
69715;HTU21D;56981;53.532;49.398;2022-11-20T09:16:05;2.88;84.53
69715;HTU21D;56981;53.532;49.398;2022-11-20T09:18:31;2.87;84.71
69715;HTU21D;56981;53.532;49.398;2022-11-20T09:21:04;2.85;84.52
69715;HTU21D;56981;53.532;49.398;2022-11-20T09:23:35;2.83;84.50
69715;HTU21D;56981;53.532;49.398;2022-11-20T09:26:12;2.81;84.00
69715;HTU21D;56981;53.532;49.398;2022-11-20T09:28:38;2.74;84.15
69715;HTU21D;56981;53.532;49.398;2022-11-20T09:31:09;2.73;84.93
69715;HTU21D;56981;53.532;49.398;2022-11-20T09:33:40;2.75;84.55
69715;HTU21D;56981;53.532;49.398;2022-11-20T09:36:06;2.74;84.61
69715;HTU21D;56981;53.532;49.398;2022-11-20T09:38:32;2.68;84.42
69715;HTU21D;56981;53.532;49.398;2022-11-20T09:41:04;2.68;84.59
69715;HTU21D;56981;53.532;49.398;2022-11-20T09:44:16;2.61;85.90
69715;HTU21D;56981;53.532;49.398;2022-11-20T09:47:01;2.64;85.43
69715;HTU21D;56981;53.532;49.398;2022-11-20T09:50:14;2.64;84.57
69715;HTU21D;56981;53.532;49.398;2022-11-20T09:52:56;2.64;84.58
69715;HTU21D;56981;53.532;49.398;2022-11-20T09:55:28;2.59;85.48
69715;HTU21D;56981;53.532;49.398;2022-11-20T10:01:18;2.65;85.00
69715;HTU21D;56981;53.532;49.398;2022-11-20T10:06:17;2.67;84.93
69715;HTU21D;56981;53.532;49.398;2022-11-20T10:08:51;2.66;85.17
69715;HTU21D;56981;53.532;49.398;2022-11-20T10:22:20;2.47;85.51
69715;HTU21D;56981;53.532;49.398;2022-11-20T10:27:41;2.56;84.96
69715;HTU21D;56981;53.532;49.398;2022-11-20T10:30:30;2.55;85.10
69715;HTU21D;56981;53.532;49.398;2022-11-20T10:33:05;2.55;85.53
69715;HTU21D;56981;53.532;49.398;2022-11-20T10:35:49;2.56;85.41
69715;HTU21D;56981;53.532;49.398;2022-11-20T10:38:21;2.52;85.64
69715;HTU21D;56981;53.532;49.398;2022-11-20T10:40:53;2.56;86.36
69715;HTU21D;56981;53.532;49.398;2022-11-20T10:43:44;2.58;85.47
69715;HTU21D;56981;53.532;49.398;2022-11-20T10:46:15;2.59;85.48
69715;HTU21D;56981;53.532;49.398;2022-11-20T10:48:49;2.58;85.27
69715;HTU21D;56981;53.532;49.398;2022-11-20T10:51:35;2.60;84.35
69715;HTU21D;56981;53.532;49.398;2022-11-20T11:00:41;2.60;85.13
69715;HTU21D;56981;53.532;49.398;2022-11-20T11:03:22;2.57;85.33
69715;HTU21D;56981;53.532;49.398;2022-11-20T11:08:26;2.67;85.74
69715;HTU21D;56981;53.532;49.398;2022-11-20T11:11:00;2.59;85.85
69715;HTU21D;56981;53.532;49.398;2022-11-20T11:13:29;2.56;85.62
69715;HTU21D;56981;53.532;49.398;2022-11-20T11:15:56;2.53;85.93
69715;HTU21D;56981;53.532;49.398;2022-11-20T11:18:29;2.44;85.64
69715;HTU21D;56981;53.532;49.398;2022-11-20T11:20:57;2.45;85.79
69715;HTU21D;56981;53.532;49.398;2022-11-20T11:23:35;2.44;86.68
69715;HTU21D;56981;53.532;49.398;2022-11-20T11:26:04;2.46;86.37
69715;HTU21D;56981;53.532;49.398;2022-11-20T11:28:31;2.42;85.93
69715;HTU21D;56981;53.532;49.398;2022-11-20T11:30:57;2.46;86.09
69715;HTU21D;56981;53.532;49.398;2022-11-20T11:33:29;2.49;86.42
69715;HTU21D;56981;53.532;49.398;2022-11-20T11:36:16;2.50;86.37
69715;HTU21D;56981;53.532;49.398;2022-11-20T11:38:44;2.53;85.55
69715;HTU21D;56981;53.532;49.398;2022-11-20T11:41:22;2.47;85.11
69715;HTU21D;56981;53.532;49.398;2022-11-20T11:43:55;2.46;84.84
69715;HTU21D;56981;53.532;49.398;2022-11-20T11:46:49;2.42;84.93
69715;HTU21D;56981;53.532;49.398;2022-11-20T11:49:22;2.40;85.06
69715;HTU21D;56981;53.532;49.398;2022-11-20T11:52:15;2.36;85.17
69715;HTU21D;56981;53.532;49.398;2022-11-20T11:55:09;2.42;85.11
69715;HTU21D;56981;53.532;49.398;2022-11-20T11:58:02;2.46;84.39
69715;HTU21D;56981;53.532;49.398;2022-11-20T12:00:35;2.50;84.64
69715;HTU21D;56981;53.532;49.398;2022-11-20T12:03:09;2.43;84.73
69715;HTU21D;56981;53.532;49.398;2022-11-20T12:05:47;2.43;84.27
69715;HTU21D;56981;53.532;49.398;2022-11-20T12:08:27;2.45;84.61
69715;HTU21D;56981;53.532;49.398;2022-11-20T12:11:06;2.42;84.42
69715;HTU21D;56981;53.532;49.398;2022-11-20T12:16:14;2.27;85.54
69715;HTU21D;56981;53.532;49.398;2022-11-20T12:18:41;2.27;86.05
69715;HTU21D;56981;53.532;49.398;2022-11-20T12:32:32;2.28;85.64
69715;HTU21D;56981;53.532;49.398;2022-11-20T12:37:54;2.37;84.28
69715;HTU21D;56981;53.532;49.398;2022-11-20T12:40:35;2.40;84.19
69715;HTU21D;56981;53.532;49.398;2022-11-20T12:43:17;2.51;84.32
69715;HTU21D;56981;53.532;49.398;2022-11-20T12:48:42;2.53;85.47
69715;HTU21D;56981;53.532;49.398;2022-11-20T12:51:30;2.62;84.93
69715;HTU21D;56981;53.532;49.398;2022-11-20T12:56:53;2.55;84.24
69715;HTU21D;56981;53.532;49.398;2022-11-20T13:05:19;2.35;85.31
69715;HTU21D;56981;53.532;49.398;2022-11-20T13:07:48;2.28;85.46
69715;HTU21D;56981;53.532;49.398;2022-11-20T13:10:43;2.24;85.71
69715;HTU21D;56981;53.532;49.398;2022-11-20T13:16:00;2.20;87.03
69715;HTU21D;56981;53.532;49.398;2022-11-20T13:18:27;2.17;86.72
69715;HTU21D;56981;53.532;49.398;2022-11-20T13:20:54;2.14;86.61
69715;HTU21D;56981;53.532;49.398;2022-11-20T13:23:25;2.11;87.05
69715;HTU21D;56981;53.532;49.398;2022-11-20T13:28:40;2.15;87.09
69715;HTU21D;56981;53.532;49.398;2022-11-20T13:31:34;2.14;86.19
69715;HTU21D;56981;53.532;49.398;2022-11-20T13:34:04;2.20;86.68
69715;HTU21D;56981;53.532;49.398;2022-11-20T13:36:33;2.11;86.68
69715;HTU21D;56981;53.532;49.398;2022-11-20T13:39:02;2.07;86.64
69715;HTU21D;56981;53.532;49.398;2022-11-20T13:41:34;2.10;86.77
69715;HTU21D;56981;53.532;49.398;2022-11-20T13:44:14;2.05;86.79
69715;HTU21D;56981;53.532;49.398;2022-11-20T13:46:46;2.10;87.12
69715;HTU21D;56981;53.532;49.398;2022-11-20T13:49:20;2.09;86.75
69715;HTU21D;56981;53.532;49.398;2022-11-20T13:51:49;2.08;86.96
69715;HTU21D;56981;53.532;49.398;2022-11-20T14:02:22;2.02;87.69
69715;HTU21D;56981;53.532;49.398;2022-11-20T14:04:51;2.05;87.78
69715;HTU21D;56981;53.532;49.398;2022-11-20T14:07:21;2.07;87.46
69715;HTU21D;56981;53.532;49.398;2022-11-20T14:09:55;2.19;87.07
69715;HTU21D;56981;53.532;49.398;2022-11-20T14:12:27;2.23;86.72
69715;HTU21D;56981;53.532;49.398;2022-11-20T14:14:54;2.19;86.78
69715;HTU21D;56981;53.532;49.398;2022-11-20T14:20:01;2.20;86.45
69715;HTU21D;56981;53.532;49.398;2022-11-20T14:22:39;2.17;86.15
69715;HTU21D;56981;53.532;49.398;2022-11-20T14:27:44;2.13;86.69
69715;HTU21D;56981;53.532;49.398;2022-11-20T14:30:26;2.16;87.00
69715;HTU21D;56981;53.532;49.398;2022-11-20T14:32:56;2.16;86.38
69715;HTU21D;56981;53.532;49.398;2022-11-20T14:35:24;2.12;86.51
69715;HTU21D;56981;53.532;49.398;2022-11-20T14:37:51;2.13;86.64
69715;HTU21D;56981;53.532;49.398;2022-11-20T14:40:44;2.17;86.67
69715;HTU21D;56981;53.532;49.398;2022-11-20T14:43:27;2.14;87.11
69715;HTU21D;56981;53.532;49.398;2022-11-20T14:46:01;2.16;87.03
69715;HTU21D;56981;53.532;49.398;2022-11-20T14:48:32;2.15;86.98
69715;HTU21D;56981;53.532;49.398;2022-11-20T14:51:00;2.14;86.83
69715;HTU21D;56981;53.532;49.398;2022-11-20T14:53:26;2.17;86.88
69715;HTU21D;56981;53.532;49.398;2022-11-20T14:56:00;2.21;86.73
69715;HTU21D;56981;53.532;49.398;2022-11-20T14:58:32;2.12;86.82
69715;HTU21D;56981;53.532;49.398;2022-11-20T15:01:06;2.09;87.01
69715;HTU21D;56981;53.532;49.398;2022-11-20T15:03:38;2.13;86.52
69715;HTU21D;56981;53.532;49.398;2022-11-20T15:06:05;2.17;86.31
69715;HTU21D;56981;53.532;49.398;2022-11-20T15:08:33;2.21;86.25
69715;HTU21D;56981;53.532;49.398;2022-11-20T15:11:00;2.26;86.11
69715;HTU21D;56981;53.532;49.398;2022-11-20T15:13:32;2.20;86.12
69715;HTU21D;56981;53.532;49.398;2022-11-20T15:16:00;2.22;85.68
69715;HTU21D;56981;53.532;49.398;2022-11-20T15:18:36;2.23;85.93
69715;HTU21D;56981;53.532;49.398;2022-11-20T15:21:06;2.20;86.04
69715;HTU21D;56981;53.532;49.398;2022-11-20T15:23:35;2.22;86.48
69715;HTU21D;56981;53.532;49.398;2022-11-20T15:26:04;2.22;86.42
69715;HTU21D;56981;53.532;49.398;2022-11-20T15:28:36;2.24;86.42
69715;HTU21D;56981;53.532;49.398;2022-11-20T15:31:05;2.22;86.77
69715;HTU21D;56981;53.532;49.398;2022-11-20T15:33:32;2.25;86.48
69715;HTU21D;56981;53.532;49.398;2022-11-20T15:36:00;2.21;86.75
69715;HTU21D;56981;53.532;49.398;2022-11-20T15:38:26;2.17;86.83
69715;HTU21D;56981;53.532;49.398;2022-11-20T15:40:52;2.17;86.85
69715;HTU21D;56981;53.532;49.398;2022-11-20T15:43:18;2.14;87.19
69715;HTU21D;56981;53.532;49.398;2022-11-20T15:45:51;2.15;87.14
69715;HTU21D;56981;53.532;49.398;2022-11-20T15:48:25;2.20;87.09
69715;HTU21D;56981;53.532;49.398;2022-11-20T15:50:58;2.27;86.96
69715;HTU21D;56981;53.532;49.398;2022-11-20T15:53:25;2.26;86.67
69715;HTU21D;56981;53.532;49.398;2022-11-20T15:55:52;2.24;86.61
69715;HTU21D;56981;53.532;49.398;2022-11-20T15:58:18;2.21;86.93
69715;HTU21D;56981;53.532;49.398;2022-11-20T16:00:44;2.12;87.37
69715;HTU21D;56981;53.532;49.398;2022-11-20T16:03:17;2.09;87.70
69715;HTU21D;56981;53.532;49.398;2022-11-20T16:05:44;2.10;87.91
69715;HTU21D;56981;53.532;49.398;2022-11-20T16:08:10;2.06;87.96
69715;HTU21D;56981;53.532;49.398;2022-11-20T16:10:37;2.02;88.37
69715;HTU21D;56981;53.532;49.398;2022-11-20T16:13:08;1.99;88.28
69715;HTU21D;56981;53.532;49.398;2022-11-20T16:15:57;1.95;88.57
69715;HTU21D;56981;53.532;49.398;2022-11-20T16:18:24;1.98;88.70
69715;HTU21D;56981;53.532;49.398;2022-11-20T16:20:52;2.02;88.69
69715;HTU21D;56981;53.532;49.398;2022-11-20T16:23:19;1.97;88.61
69715;HTU21D;56981;53.532;49.398;2022-11-20T16:25:46;1.99;88.79
69715;HTU21D;56981;53.532;49.398;2022-11-20T16:28:13;1.97;89.07
69715;HTU21D;56981;53.532;49.398;2022-11-20T16:30:42;2.06;88.97
69715;HTU21D;56981;53.532;49.398;2022-11-20T16:33:16;2.07;88.37
69715;HTU21D;56981;53.532;49.398;2022-11-20T16:35:43;2.03;88.80
69715;HTU21D;56981;53.532;49.398;2022-11-20T16:38:09;2.05;88.74
69715;HTU21D;56981;53.532;49.398;2022-11-20T16:40:35;2.03;88.80
69715;HTU21D;56981;53.532;49.398;2022-11-20T16:43:10;1.96;89.47
69715;HTU21D;56981;53.532;49.398;2022-11-20T16:45:41;1.95;89.89
69715;HTU21D;56981;53.532;49.398;2022-11-20T16:48:11;1.94;89.58
69715;HTU21D;56981;53.532;49.398;2022-11-20T16:50:53;1.91;89.39
69715;HTU21D;56981;53.532;49.398;2022-11-20T16:53:21;1.84;90.13
69715;HTU21D;56981;53.532;49.398;2022-11-20T16:55:50;1.84;89.67
69715;HTU21D;56981;53.532;49.398;2022-11-20T16:58:23;1.81;89.44